sensor_id;sensor_type;location;lat;lon;timestamp;P1;durP1;ratioP1;P2;durP2;ratioP2
485;SDS011;229;48.734;9.340;2022-08-19T00:00:32;20.03;;;13.70;;
485;SDS011;229;48.734;9.340;2022-08-19T00:02:59;18.57;;;14.00;;
485;SDS011;229;48.734;9.340;2022-08-19T00:05:26;19.17;;;13.60;;
485;SDS011;229;48.734;9.340;2022-08-19T00:07:54;18.70;;;13.90;;
485;SDS011;229;48.734;9.340;2022-08-19T00:10:22;18.47;;;13.60;;
485;SDS011;229;48.734;9.340;2022-08-19T00:12:50;18.63;;;13.10;;
485;SDS011;229;48.734;9.340;2022-08-19T00:15:18;18.50;;;13.07;;
485;SDS011;229;48.734;9.340;2022-08-19T00:17:46;25.93;;;13.33;;
485;SDS011;229;48.734;9.340;2022-08-19T00:20:14;15.80;;;12.77;;
485;SDS011;229;48.734;9.340;2022-08-19T00:22:42;18.50;;;13.53;;
485;SDS011;229;48.734;9.340;2022-08-19T00:25:10;20.03;;;14.40;;
485;SDS011;229;48.734;9.340;2022-08-19T00:27:39;19.53;;;14.00;;
485;SDS011;229;48.734;9.340;2022-08-19T00:30:07;20.00;;;14.10;;
485;SDS011;229;48.734;9.340;2022-08-19T00:32:35;20.07;;;14.90;;
485;SDS011;229;48.734;9.340;2022-08-19T00:35:02;18.73;;;13.70;;
485;SDS011;229;48.734;9.340;2022-08-19T00:37:30;26.00;;;14.90;;
485;SDS011;229;48.734;9.340;2022-08-19T00:39:58;22.77;;;14.67;;
485;SDS011;229;48.734;9.340;2022-08-19T00:42:25;19.60;;;13.03;;
485;SDS011;229;48.734;9.340;2022-08-19T00:44:55;20.47;;;14.20;;
485;SDS011;229;48.734;9.340;2022-08-19T00:47:23;20.83;;;14.30;;
485;SDS011;229;48.734;9.340;2022-08-19T00:49:51;19.83;;;13.50;;
485;SDS011;229;48.734;9.340;2022-08-19T00:52:19;18.67;;;13.53;;
485;SDS011;229;48.734;9.340;2022-08-19T00:54:47;21.67;;;14.10;;
485;SDS011;229;48.734;9.340;2022-08-19T00:57:15;20.27;;;14.20;;
485;SDS011;229;48.734;9.340;2022-08-19T00:59:44;19.63;;;14.10;;
485;SDS011;229;48.734;9.340;2022-08-19T01:02:14;17.33;;;12.73;;
485;SDS011;229;48.734;9.340;2022-08-19T01:04:41;24.60;;;15.13;;
485;SDS011;229;48.734;9.340;2022-08-19T01:07:08;21.17;;;13.63;;
485;SDS011;229;48.734;9.340;2022-08-19T01:09:36;20.73;;;14.67;;
485;SDS011;229;48.734;9.340;2022-08-19T01:12:03;20.43;;;14.70;;
485;SDS011;229;48.734;9.340;2022-08-19T01:14:30;19.47;;;14.17;;
485;SDS011;229;48.734;9.340;2022-08-19T01:16:58;21.33;;;14.50;;
485;SDS011;229;48.734;9.340;2022-08-19T01:19:27;18.63;;;13.50;;
485;SDS011;229;48.734;9.340;2022-08-19T01:21:57;24.83;;;14.70;;
485;SDS011;229;48.734;9.340;2022-08-19T01:24:27;18.40;;;13.20;;
485;SDS011;229;48.734;9.340;2022-08-19T01:26:55;20.10;;;14.30;;
485;SDS011;229;48.734;9.340;2022-08-19T01:29:23;21.67;;;14.47;;
485;SDS011;229;48.734;9.340;2022-08-19T01:31:50;22.90;;;14.60;;
485;SDS011;229;48.734;9.340;2022-08-19T01:34:17;20.97;;;14.30;;
485;SDS011;229;48.734;9.340;2022-08-19T01:36:45;24.20;;;15.70;;
485;SDS011;229;48.734;9.340;2022-08-19T01:39:15;22.10;;;15.43;;
485;SDS011;229;48.734;9.340;2022-08-19T01:41:45;23.20;;;14.13;;
485;SDS011;229;48.734;9.340;2022-08-19T01:44:12;19.80;;;14.37;;
485;SDS011;229;48.734;9.340;2022-08-19T01:46:40;22.00;;;14.40;;
485;SDS011;229;48.734;9.340;2022-08-19T01:49:08;24.40;;;14.23;;
485;SDS011;229;48.734;9.340;2022-08-19T01:51:36;19.20;;;13.47;;
485;SDS011;229;48.734;9.340;2022-08-19T01:54:03;22.60;;;15.40;;
485;SDS011;229;48.734;9.340;2022-08-19T01:56:31;20.80;;;13.97;;
485;SDS011;229;48.734;9.340;2022-08-19T01:59:00;22.77;;;14.80;;
485;SDS011;229;48.734;9.340;2022-08-19T02:01:28;21.90;;;14.00;;
485;SDS011;229;48.734;9.340;2022-08-19T02:03:57;19.03;;;13.83;;
485;SDS011;229;48.734;9.340;2022-08-19T02:06:25;20.90;;;14.47;;
485;SDS011;229;48.734;9.340;2022-08-19T02:08:53;21.90;;;14.40;;
485;SDS011;229;48.734;9.340;2022-08-19T02:11:21;22.40;;;15.03;;
485;SDS011;229;48.734;9.340;2022-08-19T02:13:49;22.00;;;14.60;;
485;SDS011;229;48.734;9.340;2022-08-19T02:16:18;20.10;;;14.17;;
485;SDS011;229;48.734;9.340;2022-08-19T02:18:45;20.33;;;14.03;;
485;SDS011;229;48.734;9.340;2022-08-19T02:21:13;21.53;;;14.37;;
485;SDS011;229;48.734;9.340;2022-08-19T02:23:40;25.93;;;15.40;;
485;SDS011;229;48.734;9.340;2022-08-19T02:26:08;22.03;;;13.77;;
485;SDS011;229;48.734;9.340;2022-08-19T02:28:35;24.57;;;14.93;;
485;SDS011;229;48.734;9.340;2022-08-19T02:31:03;20.53;;;13.47;;
485;SDS011;229;48.734;9.340;2022-08-19T02:33:31;22.50;;;14.53;;
485;SDS011;229;48.734;9.340;2022-08-19T02:35:58;19.17;;;13.60;;
485;SDS011;229;48.734;9.340;2022-08-19T02:38:26;24.77;;;14.63;;
485;SDS011;229;48.734;9.340;2022-08-19T02:40:52;21.53;;;14.07;;
485;SDS011;229;48.734;9.340;2022-08-19T02:43:20;22.63;;;15.37;;
485;SDS011;229;48.734;9.340;2022-08-19T02:45:48;23.90;;;14.83;;
485;SDS011;229;48.734;9.340;2022-08-19T02:48:17;28.43;;;16.43;;
485;SDS011;229;48.734;9.340;2022-08-19T02:50:46;28.73;;;15.90;;
485;SDS011;229;48.734;9.340;2022-08-19T02:53:13;27.57;;;16.00;;
485;SDS011;229;48.734;9.340;2022-08-19T02:55:44;27.60;;;16.53;;
485;SDS011;229;48.734;9.340;2022-08-19T02:58:12;26.00;;;16.13;;
485;SDS011;229;48.734;9.340;2022-08-19T03:00:43;28.33;;;15.87;;
485;SDS011;229;48.734;9.340;2022-08-19T03:03:10;26.77;;;16.27;;
485;SDS011;229;48.734;9.340;2022-08-19T03:05:38;25.53;;;15.83;;
485;SDS011;229;48.734;9.340;2022-08-19T03:08:07;27.53;;;16.17;;
485;SDS011;229;48.734;9.340;2022-08-19T03:10:39;27.63;;;16.03;;
485;SDS011;229;48.734;9.340;2022-08-19T03:13:09;24.63;;;15.77;;
485;SDS011;229;48.734;9.340;2022-08-19T03:15:38;25.43;;;15.87;;
485;SDS011;229;48.734;9.340;2022-08-19T03:18:05;32.03;;;17.70;;
485;SDS011;229;48.734;9.340;2022-08-19T03:20:32;26.70;;;15.50;;
485;SDS011;229;48.734;9.340;2022-08-19T03:23:00;37.77;;;17.57;;
485;SDS011;229;48.734;9.340;2022-08-19T03:25:28;31.13;;;16.43;;
485;SDS011;229;48.734;9.340;2022-08-19T03:27:55;39.83;;;17.73;;
485;SDS011;229;48.734;9.340;2022-08-19T03:30:23;25.50;;;15.73;;
485;SDS011;229;48.734;9.340;2022-08-19T03:32:50;24.87;;;16.33;;
485;SDS011;229;48.734;9.340;2022-08-19T03:35:17;26.20;;;15.83;;
485;SDS011;229;48.734;9.340;2022-08-19T03:37:45;26.37;;;17.07;;
485;SDS011;229;48.734;9.340;2022-08-19T03:40:12;29.63;;;17.40;;
485;SDS011;229;48.734;9.340;2022-08-19T03:42:41;29.70;;;17.37;;
485;SDS011;229;48.734;9.340;2022-08-19T03:45:08;30.07;;;18.23;;
485;SDS011;229;48.734;9.340;2022-08-19T03:47:36;30.23;;;16.57;;
485;SDS011;229;48.734;9.340;2022-08-19T03:50:06;28.03;;;16.63;;
485;SDS011;229;48.734;9.340;2022-08-19T03:52:34;27.87;;;16.13;;
485;SDS011;229;48.734;9.340;2022-08-19T03:55:01;25.73;;;15.37;;
485;SDS011;229;48.734;9.340;2022-08-19T03:57:28;30.80;;;18.07;;
485;SDS011;229;48.734;9.340;2022-08-19T03:59:57;33.57;;;18.93;;
485;SDS011;229;48.734;9.340;2022-08-19T04:02:24;27.20;;;17.80;;
485;SDS011;229;48.734;9.340;2022-08-19T04:04:52;29.10;;;18.73;;
485;SDS011;229;48.734;9.340;2022-08-19T04:07:20;29.37;;;18.63;;
485;SDS011;229;48.734;9.340;2022-08-19T04:09:47;28.83;;;18.13;;
485;SDS011;229;48.734;9.340;2022-08-19T04:12:17;30.33;;;16.80;;
485;SDS011;229;48.734;9.340;2022-08-19T04:14:44;31.13;;;19.43;;
485;SDS011;229;48.734;9.340;2022-08-19T04:17:13;28.90;;;19.57;;
485;SDS011;229;48.734;9.340;2022-08-19T04:19:40;31.13;;;18.73;;
485;SDS011;229;48.734;9.340;2022-08-19T04:22:08;29.00;;;19.00;;
485;SDS011;229;48.734;9.340;2022-08-19T04:24:37;33.10;;;20.60;;
485;SDS011;229;48.734;9.340;2022-08-19T04:27:04;31.10;;;19.00;;
485;SDS011;229;48.734;9.340;2022-08-19T04:29:32;30.80;;;20.13;;
485;SDS011;229;48.734;9.340;2022-08-19T04:31:59;32.77;;;20.60;;
485;SDS011;229;48.734;9.340;2022-08-19T04:34:28;33.20;;;19.60;;
485;SDS011;229;48.734;9.340;2022-08-19T04:36:56;31.13;;;20.33;;
485;SDS011;229;48.734;9.340;2022-08-19T04:39:26;31.87;;;21.20;;
485;SDS011;229;48.734;9.340;2022-08-19T04:42:14;33.90;;;22.30;;
485;SDS011;229;48.734;9.340;2022-08-19T04:44:59;32.57;;;21.90;;
485;SDS011;229;48.734;9.340;2022-08-19T04:47:28;39.07;;;21.50;;
485;SDS011;229;48.734;9.340;2022-08-19T04:49:59;33.30;;;21.40;;
485;SDS011;229;48.734;9.340;2022-08-19T04:52:26;28.97;;;18.30;;
485;SDS011;229;48.734;9.340;2022-08-19T04:54:53;30.63;;;19.70;;
485;SDS011;229;48.734;9.340;2022-08-19T04:57:21;29.67;;;19.60;;
485;SDS011;229;48.734;9.340;2022-08-19T04:59:48;32.53;;;21.00;;
485;SDS011;229;48.734;9.340;2022-08-19T05:02:16;32.57;;;20.03;;
485;SDS011;229;48.734;9.340;2022-08-19T05:04:43;33.90;;;21.47;;
485;SDS011;229;48.734;9.340;2022-08-19T05:07:11;29.90;;;19.40;;
485;SDS011;229;48.734;9.340;2022-08-19T05:09:38;31.60;;;21.00;;
485;SDS011;229;48.734;9.340;2022-08-19T05:12:06;32.17;;;20.70;;
485;SDS011;229;48.734;9.340;2022-08-19T05:14:33;31.03;;;19.57;;
485;SDS011;229;48.734;9.340;2022-08-19T05:17:01;37.83;;;21.43;;
485;SDS011;229;48.734;9.340;2022-08-19T05:19:28;33.50;;;19.73;;
485;SDS011;229;48.734;9.340;2022-08-19T05:22:15;35.87;;;22.43;;
485;SDS011;229;48.734;9.340;2022-08-19T05:25:00;33.43;;;21.93;;
485;SDS011;229;48.734;9.340;2022-08-19T05:27:28;33.00;;;19.97;;
485;SDS011;229;48.734;9.340;2022-08-19T05:29:55;32.17;;;19.93;;
485;SDS011;229;48.734;9.340;2022-08-19T05:32:22;34.03;;;20.93;;
485;SDS011;229;48.734;9.340;2022-08-19T05:34:49;37.47;;;20.67;;
485;SDS011;229;48.734;9.340;2022-08-19T05:37:18;32.27;;;20.60;;
485;SDS011;229;48.734;9.340;2022-08-19T05:39:45;32.80;;;18.97;;
485;SDS011;229;48.734;9.340;2022-08-19T05:42:14;35.00;;;20.80;;
485;SDS011;229;48.734;9.340;2022-08-19T05:44:42;35.40;;;21.27;;
485;SDS011;229;48.734;9.340;2022-08-19T05:47:10;39.70;;;20.97;;
485;SDS011;229;48.734;9.340;2022-08-19T05:49:38;32.33;;;20.90;;
485;SDS011;229;48.734;9.340;2022-08-19T05:52:06;28.03;;;17.93;;
485;SDS011;229;48.734;9.340;2022-08-19T05:54:36;34.17;;;20.83;;
485;SDS011;229;48.734;9.340;2022-08-19T05:57:05;31.67;;;19.93;;
485;SDS011;229;48.734;9.340;2022-08-19T05:59:33;33.30;;;20.60;;
485;SDS011;229;48.734;9.340;2022-08-19T06:02:00;33.87;;;20.40;;
485;SDS011;229;48.734;9.340;2022-08-19T06:04:28;33.70;;;20.00;;
485;SDS011;229;48.734;9.340;2022-08-19T06:06:55;31.63;;;19.87;;
485;SDS011;229;48.734;9.340;2022-08-19T06:09:23;37.80;;;21.40;;
485;SDS011;229;48.734;9.340;2022-08-19T06:11:52;29.60;;;20.07;;
485;SDS011;229;48.734;9.340;2022-08-19T06:14:21;43.43;;;21.70;;
485;SDS011;229;48.734;9.340;2022-08-19T06:16:49;35.00;;;20.67;;
485;SDS011;229;48.734;9.340;2022-08-19T06:19:18;32.60;;;21.87;;
485;SDS011;229;48.734;9.340;2022-08-19T06:21:46;35.67;;;20.57;;
485;SDS011;229;48.734;9.340;2022-08-19T06:24:14;35.67;;;21.30;;
485;SDS011;229;48.734;9.340;2022-08-19T06:26:43;40.13;;;23.30;;
485;SDS011;229;48.734;9.340;2022-08-19T06:29:13;35.30;;;22.33;;
485;SDS011;229;48.734;9.340;2022-08-19T06:31:41;34.13;;;21.43;;
485;SDS011;229;48.734;9.340;2022-08-19T06:34:08;35.93;;;23.10;;
485;SDS011;229;48.734;9.340;2022-08-19T06:36:36;38.20;;;23.50;;
485;SDS011;229;48.734;9.340;2022-08-19T06:39:06;37.57;;;23.23;;
485;SDS011;229;48.734;9.340;2022-08-19T06:41:35;36.60;;;22.50;;
485;SDS011;229;48.734;9.340;2022-08-19T06:44:03;33.30;;;23.10;;
485;SDS011;229;48.734;9.340;2022-08-19T06:46:32;33.93;;;23.40;;
485;SDS011;229;48.734;9.340;2022-08-19T06:48:59;37.60;;;23.13;;
485;SDS011;229;48.734;9.340;2022-08-19T06:51:26;40.13;;;23.43;;
485;SDS011;229;48.734;9.340;2022-08-19T06:53:54;38.00;;;22.50;;
485;SDS011;229;48.734;9.340;2022-08-19T06:56:22;37.83;;;23.50;;
485;SDS011;229;48.734;9.340;2022-08-19T06:58:55;37.43;;;23.93;;
485;SDS011;229;48.734;9.340;2022-08-19T07:01:23;39.30;;;22.70;;
485;SDS011;229;48.734;9.340;2022-08-19T07:03:51;39.60;;;23.27;;
485;SDS011;229;48.734;9.340;2022-08-19T07:06:19;40.30;;;24.70;;
485;SDS011;229;48.734;9.340;2022-08-19T07:08:46;43.20;;;24.07;;
485;SDS011;229;48.734;9.340;2022-08-19T07:11:14;43.53;;;24.17;;
485;SDS011;229;48.734;9.340;2022-08-19T07:13:42;50.03;;;26.60;;
485;SDS011;229;48.734;9.340;2022-08-19T07:16:12;43.30;;;26.13;;
485;SDS011;229;48.734;9.340;2022-08-19T07:18:40;39.37;;;24.00;;
485;SDS011;229;48.734;9.340;2022-08-19T07:21:10;42.40;;;24.63;;
485;SDS011;229;48.734;9.340;2022-08-19T07:23:38;42.83;;;25.30;;
485;SDS011;229;48.734;9.340;2022-08-19T07:26:05;41.40;;;26.30;;
485;SDS011;229;48.734;9.340;2022-08-19T07:28:33;41.90;;;24.17;;
485;SDS011;229;48.734;9.340;2022-08-19T07:31:04;48.53;;;26.30;;
485;SDS011;229;48.734;9.340;2022-08-19T07:33:31;45.30;;;25.93;;
485;SDS011;229;48.734;9.340;2022-08-19T07:35:59;46.50;;;27.30;;
485;SDS011;229;48.734;9.340;2022-08-19T07:38:27;44.90;;;27.37;;
485;SDS011;229;48.734;9.340;2022-08-19T07:40:54;42.70;;;25.43;;
485;SDS011;229;48.734;9.340;2022-08-19T07:43:22;47.53;;;26.97;;
485;SDS011;229;48.734;9.340;2022-08-19T07:45:50;43.97;;;25.03;;
485;SDS011;229;48.734;9.340;2022-08-19T07:48:17;42.93;;;26.07;;
485;SDS011;229;48.734;9.340;2022-08-19T07:50:44;48.13;;;26.80;;
485;SDS011;229;48.734;9.340;2022-08-19T07:53:13;42.03;;;24.50;;
485;SDS011;229;48.734;9.340;2022-08-19T07:55:42;41.97;;;25.87;;
485;SDS011;229;48.734;9.340;2022-08-19T07:58:10;41.10;;;25.30;;
485;SDS011;229;48.734;9.340;2022-08-19T08:00:38;40.33;;;24.70;;
485;SDS011;229;48.734;9.340;2022-08-19T08:03:05;43.17;;;25.00;;
485;SDS011;229;48.734;9.340;2022-08-19T08:05:33;44.27;;;26.27;;
485;SDS011;229;48.734;9.340;2022-08-19T08:08:21;46.57;;;26.70;;
485;SDS011;229;48.734;9.340;2022-08-19T08:10:48;44.17;;;26.40;;
485;SDS011;229;48.734;9.340;2022-08-19T08:13:17;42.13;;;25.37;;
485;SDS011;229;48.734;9.340;2022-08-19T08:15:44;40.80;;;23.07;;
485;SDS011;229;48.734;9.340;2022-08-19T08:18:11;41.93;;;23.40;;
485;SDS011;229;48.734;9.340;2022-08-19T08:20:39;41.03;;;25.13;;
485;SDS011;229;48.734;9.340;2022-08-19T08:23:06;42.63;;;23.97;;
485;SDS011;229;48.734;9.340;2022-08-19T08:25:52;40.00;;;23.67;;
485;SDS011;229;48.734;9.340;2022-08-19T08:28:19;43.57;;;26.00;;
485;SDS011;229;48.734;9.340;2022-08-19T08:30:47;42.07;;;24.53;;
485;SDS011;229;48.734;9.340;2022-08-19T08:33:16;40.00;;;24.90;;
485;SDS011;229;48.734;9.340;2022-08-19T08:35:44;43.33;;;24.50;;
485;SDS011;229;48.734;9.340;2022-08-19T08:38:11;40.93;;;26.07;;
485;SDS011;229;48.734;9.340;2022-08-19T08:40:39;44.93;;;26.67;;
485;SDS011;229;48.734;9.340;2022-08-19T08:43:13;45.87;;;25.63;;
485;SDS011;229;48.734;9.340;2022-08-19T08:45:47;37.73;;;24.53;;
485;SDS011;229;48.734;9.340;2022-08-19T08:48:18;41.03;;;24.93;;
485;SDS011;229;48.734;9.340;2022-08-19T08:50:46;41.23;;;26.00;;
485;SDS011;229;48.734;9.340;2022-08-19T08:53:16;43.57;;;25.80;;
485;SDS011;229;48.734;9.340;2022-08-19T08:55:44;43.37;;;23.67;;
485;SDS011;229;48.734;9.340;2022-08-19T08:58:14;35.23;;;22.40;;
485;SDS011;229;48.734;9.340;2022-08-19T09:00:45;35.13;;;21.17;;
485;SDS011;229;48.734;9.340;2022-08-19T09:03:15;37.87;;;25.00;;
485;SDS011;229;48.734;9.340;2022-08-19T09:05:45;36.20;;;21.10;;
485;SDS011;229;48.734;9.340;2022-08-19T09:08:16;32.97;;;21.30;;
485;SDS011;229;48.734;9.340;2022-08-19T09:10:46;38.20;;;22.20;;
485;SDS011;229;48.734;9.340;2022-08-19T09:13:18;36.80;;;23.30;;
485;SDS011;229;48.734;9.340;2022-08-19T09:15:52;40.27;;;23.30;;
485;SDS011;229;48.734;9.340;2022-08-19T09:18:19;35.20;;;21.87;;
485;SDS011;229;48.734;9.340;2022-08-19T09:20:46;35.30;;;21.40;;
485;SDS011;229;48.734;9.340;2022-08-19T09:23:14;37.33;;;21.03;;
485;SDS011;229;48.734;9.340;2022-08-19T09:25:41;35.37;;;21.37;;
485;SDS011;229;48.734;9.340;2022-08-19T09:28:08;33.67;;;21.23;;
485;SDS011;229;48.734;9.340;2022-08-19T09:30:39;37.87;;;21.67;;
485;SDS011;229;48.734;9.340;2022-08-19T09:33:06;33.60;;;20.83;;
485;SDS011;229;48.734;9.340;2022-08-19T09:35:34;35.43;;;21.07;;
485;SDS011;229;48.734;9.340;2022-08-19T09:38:01;35.50;;;20.30;;
485;SDS011;229;48.734;9.340;2022-08-19T09:40:29;35.47;;;21.30;;
485;SDS011;229;48.734;9.340;2022-08-19T09:42:57;36.20;;;22.37;;
485;SDS011;229;48.734;9.340;2022-08-19T09:45:27;46.10;;;23.47;;
485;SDS011;229;48.734;9.340;2022-08-19T09:47:56;40.57;;;24.17;;
485;SDS011;229;48.734;9.340;2022-08-19T09:50:23;33.07;;;22.10;;
485;SDS011;229;48.734;9.340;2022-08-19T09:52:50;35.67;;;21.93;;
485;SDS011;229;48.734;9.340;2022-08-19T09:55:21;41.20;;;23.10;;
485;SDS011;229;48.734;9.340;2022-08-19T09:57:49;35.47;;;22.23;;
485;SDS011;229;48.734;9.340;2022-08-19T10:00:16;34.33;;;20.87;;
485;SDS011;229;48.734;9.340;2022-08-19T10:02:43;33.27;;;21.40;;
485;SDS011;229;48.734;9.340;2022-08-19T10:05:12;32.77;;;22.47;;
485;SDS011;229;48.734;9.340;2022-08-19T10:07:56;40.83;;;22.30;;
485;SDS011;229;48.734;9.340;2022-08-19T10:10:25;32.43;;;20.93;;
485;SDS011;229;48.734;9.340;2022-08-19T10:12:53;42.07;;;22.50;;
485;SDS011;229;48.734;9.340;2022-08-19T10:15:21;39.37;;;21.80;;
485;SDS011;229;48.734;9.340;2022-08-19T10:17:48;38.00;;;21.17;;
485;SDS011;229;48.734;9.340;2022-08-19T10:20:16;35.60;;;22.60;;
485;SDS011;229;48.734;9.340;2022-08-19T10:22:44;40.03;;;22.77;;
485;SDS011;229;48.734;9.340;2022-08-19T10:25:11;35.87;;;21.00;;
485;SDS011;229;48.734;9.340;2022-08-19T10:27:41;35.17;;;21.53;;
485;SDS011;229;48.734;9.340;2022-08-19T10:30:09;37.70;;;22.70;;
485;SDS011;229;48.734;9.340;2022-08-19T10:32:36;38.37;;;21.97;;
485;SDS011;229;48.734;9.340;2022-08-19T10:35:04;37.33;;;21.93;;
485;SDS011;229;48.734;9.340;2022-08-19T10:37:35;34.83;;;22.07;;
485;SDS011;229;48.734;9.340;2022-08-19T10:40:04;39.83;;;23.07;;
485;SDS011;229;48.734;9.340;2022-08-19T10:42:32;34.80;;;23.20;;
485;SDS011;229;48.734;9.340;2022-08-19T10:45:00;38.40;;;23.57;;
485;SDS011;229;48.734;9.340;2022-08-19T10:47:27;40.97;;;24.30;;
485;SDS011;229;48.734;9.340;2022-08-19T10:49:54;38.60;;;23.73;;
485;SDS011;229;48.734;9.340;2022-08-19T10:52:42;39.37;;;23.03;;
485;SDS011;229;48.734;9.340;2022-08-19T10:55:09;40.77;;;23.10;;
485;SDS011;229;48.734;9.340;2022-08-19T10:57:54;45.23;;;24.60;;
485;SDS011;229;48.734;9.340;2022-08-19T11:00:22;46.47;;;25.67;;
485;SDS011;229;48.734;9.340;2022-08-19T11:02:50;37.97;;;24.57;;
485;SDS011;229;48.734;9.340;2022-08-19T11:05:18;44.33;;;26.07;;
485;SDS011;229;48.734;9.340;2022-08-19T11:07:48;52.57;;;26.27;;
485;SDS011;229;48.734;9.340;2022-08-19T11:10:16;51.37;;;26.33;;
485;SDS011;229;48.734;9.340;2022-08-19T11:12:44;48.33;;;27.53;;
485;SDS011;229;48.734;9.340;2022-08-19T11:15:13;41.93;;;25.20;;
485;SDS011;229;48.734;9.340;2022-08-19T11:17:40;45.67;;;26.20;;
485;SDS011;229;48.734;9.340;2022-08-19T11:20:09;47.93;;;24.67;;
485;SDS011;229;48.734;9.340;2022-08-19T11:22:37;50.17;;;26.77;;
485;SDS011;229;48.734;9.340;2022-08-19T11:25:06;43.67;;;25.63;;
485;SDS011;229;48.734;9.340;2022-08-19T11:27:37;46.60;;;26.03;;
485;SDS011;229;48.734;9.340;2022-08-19T11:30:05;48.60;;;27.93;;
485;SDS011;229;48.734;9.340;2022-08-19T11:32:32;49.83;;;28.30;;
485;SDS011;229;48.734;9.340;2022-08-19T11:35:00;43.53;;;25.63;;
485;SDS011;229;48.734;9.340;2022-08-19T11:37:27;47.77;;;27.63;;
485;SDS011;229;48.734;9.340;2022-08-19T11:39:54;45.67;;;26.73;;
485;SDS011;229;48.734;9.340;2022-08-19T11:42:23;47.13;;;25.83;;
485;SDS011;229;48.734;9.340;2022-08-19T11:45:08;44.77;;;28.17;;
485;SDS011;229;48.734;9.340;2022-08-19T11:47:35;52.77;;;30.67;;
485;SDS011;229;48.734;9.340;2022-08-19T11:50:04;46.40;;;28.03;;
485;SDS011;229;48.734;9.340;2022-08-19T11:52:31;44.93;;;26.57;;
485;SDS011;229;48.734;9.340;2022-08-19T11:54:58;43.83;;;25.70;;
485;SDS011;229;48.734;9.340;2022-08-19T11:57:27;43.73;;;25.10;;
485;SDS011;229;48.734;9.340;2022-08-19T11:59:54;43.90;;;26.70;;
485;SDS011;229;48.734;9.340;2022-08-19T12:02:21;55.30;;;31.30;;
485;SDS011;229;48.734;9.340;2022-08-19T12:04:49;64.27;;;36.33;;
485;SDS011;229;48.734;9.340;2022-08-19T12:07:16;51.73;;;30.83;;
485;SDS011;229;48.734;9.340;2022-08-19T12:09:44;49.83;;;28.17;;
485;SDS011;229;48.734;9.340;2022-08-19T12:12:11;44.47;;;27.30;;
485;SDS011;229;48.734;9.340;2022-08-19T12:14:39;50.37;;;27.63;;
485;SDS011;229;48.734;9.340;2022-08-19T12:17:07;45.40;;;27.13;;
485;SDS011;229;48.734;9.340;2022-08-19T12:19:35;49.37;;;27.70;;
485;SDS011;229;48.734;9.340;2022-08-19T12:22:04;43.30;;;26.97;;
485;SDS011;229;48.734;9.340;2022-08-19T12:24:32;47.23;;;28.13;;
485;SDS011;229;48.734;9.340;2022-08-19T12:26:59;47.90;;;28.20;;
485;SDS011;229;48.734;9.340;2022-08-19T12:29:28;44.70;;;25.70;;
485;SDS011;229;48.734;9.340;2022-08-19T12:31:57;46.83;;;25.63;;
485;SDS011;229;48.734;9.340;2022-08-19T12:34:26;42.73;;;26.40;;
485;SDS011;229;48.734;9.340;2022-08-19T12:36:55;45.80;;;26.00;;
485;SDS011;229;48.734;9.340;2022-08-19T12:39:22;42.37;;;25.20;;
485;SDS011;229;48.734;9.340;2022-08-19T12:41:50;43.87;;;26.33;;
485;SDS011;229;48.734;9.340;2022-08-19T12:44:17;47.53;;;26.83;;
485;SDS011;229;48.734;9.340;2022-08-19T12:46:44;46.07;;;26.90;;
485;SDS011;229;48.734;9.340;2022-08-19T12:49:13;41.80;;;24.07;;
485;SDS011;229;48.734;9.340;2022-08-19T12:51:40;41.70;;;25.17;;
485;SDS011;229;48.734;9.340;2022-08-19T12:54:08;45.30;;;24.40;;
485;SDS011;229;48.734;9.340;2022-08-19T12:56:35;46.23;;;25.60;;
485;SDS011;229;48.734;9.340;2022-08-19T12:59:03;43.57;;;25.23;;
485;SDS011;229;48.734;9.340;2022-08-19T13:01:32;48.13;;;25.90;;
485;SDS011;229;48.734;9.340;2022-08-19T13:04:00;42.07;;;25.93;;
485;SDS011;229;48.734;9.340;2022-08-19T13:06:35;44.53;;;26.33;;
485;SDS011;229;48.734;9.340;2022-08-19T13:09:02;45.17;;;25.90;;
485;SDS011;229;48.734;9.340;2022-08-19T13:11:32;46.30;;;26.73;;
485;SDS011;229;48.734;9.340;2022-08-19T13:13:59;50.83;;;29.70;;
485;SDS011;229;48.734;9.340;2022-08-19T13:16:27;56.87;;;29.67;;
485;SDS011;229;48.734;9.340;2022-08-19T13:18:55;52.53;;;28.10;;
485;SDS011;229;48.734;9.340;2022-08-19T13:21:24;56.40;;;31.60;;
485;SDS011;229;48.734;9.340;2022-08-19T13:23:53;46.20;;;28.47;;
485;SDS011;229;48.734;9.340;2022-08-19T13:26:20;47.10;;;27.47;;
485;SDS011;229;48.734;9.340;2022-08-19T13:28:48;49.37;;;28.03;;
485;SDS011;229;48.734;9.340;2022-08-19T13:31:33;48.33;;;27.70;;
485;SDS011;229;48.734;9.340;2022-08-19T13:34:19;50.80;;;27.77;;
485;SDS011;229;48.734;9.340;2022-08-19T13:36:52;52.57;;;27.67;;
485;SDS011;229;48.734;9.340;2022-08-19T13:39:20;48.50;;;27.60;;
485;SDS011;229;48.734;9.340;2022-08-19T13:41:49;44.30;;;25.97;;
485;SDS011;229;48.734;9.340;2022-08-19T13:44:16;46.63;;;27.80;;
485;SDS011;229;48.734;9.340;2022-08-19T13:46:44;50.20;;;29.40;;
485;SDS011;229;48.734;9.340;2022-08-19T13:49:12;53.27;;;29.10;;
485;SDS011;229;48.734;9.340;2022-08-19T13:51:40;52.93;;;30.10;;
485;SDS011;229;48.734;9.340;2022-08-19T13:54:08;53.13;;;28.83;;
485;SDS011;229;48.734;9.340;2022-08-19T13:56:38;54.73;;;31.07;;
485;SDS011;229;48.734;9.340;2022-08-19T13:59:06;48.87;;;26.60;;
485;SDS011;229;48.734;9.340;2022-08-19T14:01:34;45.93;;;28.17;;
485;SDS011;229;48.734;9.340;2022-08-19T14:04:01;44.10;;;26.47;;
485;SDS011;229;48.734;9.340;2022-08-19T14:06:29;48.70;;;28.57;;
485;SDS011;229;48.734;9.340;2022-08-19T14:08:56;54.27;;;29.60;;
485;SDS011;229;48.734;9.340;2022-08-19T14:11:23;49.80;;;28.37;;
485;SDS011;229;48.734;9.340;2022-08-19T14:13:51;49.27;;;27.80;;
485;SDS011;229;48.734;9.340;2022-08-19T14:16:19;52.23;;;27.20;;
485;SDS011;229;48.734;9.340;2022-08-19T14:18:46;51.47;;;27.53;;
485;SDS011;229;48.734;9.340;2022-08-19T14:21:14;52.43;;;30.00;;
485;SDS011;229;48.734;9.340;2022-08-19T14:23:42;51.97;;;28.90;;
485;SDS011;229;48.734;9.340;2022-08-19T14:26:11;56.20;;;29.40;;
485;SDS011;229;48.734;9.340;2022-08-19T14:28:38;49.53;;;28.83;;
485;SDS011;229;48.734;9.340;2022-08-19T14:31:08;57.43;;;30.70;;
485;SDS011;229;48.734;9.340;2022-08-19T14:33:35;50.90;;;27.90;;
485;SDS011;229;48.734;9.340;2022-08-19T14:36:03;50.77;;;28.97;;
485;SDS011;229;48.734;9.340;2022-08-19T14:38:30;50.80;;;28.03;;
485;SDS011;229;48.734;9.340;2022-08-19T14:41:10;49.37;;;27.13;;
485;SDS011;229;48.734;9.340;2022-08-19T14:43:38;49.43;;;27.63;;
485;SDS011;229;48.734;9.340;2022-08-19T14:46:05;52.43;;;28.13;;
485;SDS011;229;48.734;9.340;2022-08-19T14:48:34;45.87;;;27.07;;
485;SDS011;229;48.734;9.340;2022-08-19T14:51:03;42.70;;;26.13;;
485;SDS011;229;48.734;9.340;2022-08-19T14:53:31;40.57;;;26.27;;
485;SDS011;229;48.734;9.340;2022-08-19T14:55:59;45.23;;;27.00;;
485;SDS011;229;48.734;9.340;2022-08-19T14:58:27;45.03;;;25.60;;
485;SDS011;229;48.734;9.340;2022-08-19T15:00:54;45.30;;;27.00;;
485;SDS011;229;48.734;9.340;2022-08-19T15:03:21;44.23;;;25.50;;
485;SDS011;229;48.734;9.340;2022-08-19T15:05:50;39.60;;;23.97;;
485;SDS011;229;48.734;9.340;2022-08-19T15:08:17;45.60;;;24.57;;
485;SDS011;229;48.734;9.340;2022-08-19T15:10:48;42.53;;;24.53;;
485;SDS011;229;48.734;9.340;2022-08-19T15:13:15;44.70;;;25.27;;
485;SDS011;229;48.734;9.340;2022-08-19T15:15:43;44.33;;;25.87;;
485;SDS011;229;48.734;9.340;2022-08-19T15:18:10;44.33;;;25.50;;
485;SDS011;229;48.734;9.340;2022-08-19T15:20:38;42.00;;;24.57;;
485;SDS011;229;48.734;9.340;2022-08-19T15:23:06;43.83;;;24.27;;